Time,TemperatureF,DewpointF,PressureIn,WindDirection,WindDirectionDegrees,WindSpeedMPH,WindSpeedGustMPH,Humidity,HourlyPrecipIn,Conditions,Clouds,dailyrainin,SoftwareType,DateUTC
2013-04-17 07:25:00,46.6,25.8,29.89,SSW,211,1.0,2.0,44,0.00,,,0.00,Wunderground v.1.15,2013-04-17 14:25:00,
2013-04-17 07:30:00,48.1,25.5,29.88,South,171,1.0,4.0,41,0.00,,,0.00,Wunderground v.1.15,2013-04-17 14:30:00,
2013-04-17 07:35:00,48.4,25.8,29.88,SSE,158,3.0,3.0,41,0.00,,,0.00,Wunderground v.1.15,2013-04-17 14:35:00,
2013-04-17 07:40:00,48.6,25.9,29.89,South,191,3.0,3.0,41,0.00,,,0.00,Wunderground v.1.15,2013-04-17 14:40:00,
2013-04-17 07:46:00,48.5,26.4,29.89,SE,131,1.0,1.0,42,0.00,,,0.00,Wunderground v.1.15,2013-04-17 14:46:00,
2013-04-17 07:55:00,48.1,27.2,29.89,NE,39,2.0,3.0,44,0.00,,,0.00,Wunderground v.1.15,2013-04-17 14:55:00,
2013-04-17 08:00:00,47.9,27.0,29.90,NW,307,2.0,2.0,44,0.00,,,0.00,Wunderground v.1.15,2013-04-17 15:00:00,
2013-04-17 08:10:00,48.3,25.7,29.90,NW,309,4.0,6.0,41,0.00,,,0.00,Wunderground v.1.15,2013-04-17 15:10:00,
2013-04-17 08:15:00,48.4,25.8,29.90,NW,316,6.0,6.0,41,0.00,,,0.00,Wunderground v.1.15,2013-04-17 15:15:00,
2013-04-17 08:25:00,48.7,27.2,29.91,NNW,327,5.0,6.0,43,0.00,,,0.00,Wunderground v.1.15,2013-04-17 15:25:00,
2013-04-17 08:30:00,48.9,27.4,29.90,NNW,335,5.0,5.0,43,0.00,,,0.00,Wunderground v.1.15,2013-04-17 15:30:00,
2013-04-17 08:40:00,48.9,27.4,29.90,North,8,7.0,11.0,43,0.00,,,0.00,Wunderground v.1.15,2013-04-17 15:40:00,
2013-04-17 08:45:00,48.8,27.8,29.91,NNW,334,8.0,11.0,44,0.00,,,0.00,Wunderground v.1.15,2013-04-17 15:45:00,
2013-04-17 08:55:00,49.0,27.5,29.91,NNW,342,9.0,10.0,43,0.00,,,0.00,Wunderground v.1.15,2013-04-17 15:55:00,
2013-04-17 09:00:00,49.7,28.1,29.91,NNW,336,8.0,8.0,43,0.00,,,0.00,Wunderground v.1.15,2013-04-17 16:00:00,
2013-04-17 09:10:00,50.5,27.7,29.91,NNW,330,7.0,7.0,41,0.00,,,0.00,Wunderground v.1.15,2013-04-17 16:10:00,
2013-04-17 09:15:00,51.2,27.7,29.91,North,8,7.0,7.0,40,0.00,,,0.00,Wunderground v.1.15,2013-04-17 16:15:00,
2013-04-17 09:25:00,52.3,27.4,29.91,NNE,16,4.0,8.0,38,0.00,,,0.00,Wunderground v.1.15,2013-04-17 16:25:00,
2013-04-17 09:30:00,52.3,26.1,29.91,NNW,346,5.0,5.0,36,0.00,,,0.00,Wunderground v.1.15,2013-04-17 16:30:00,
2013-04-17 09:40:00,53.0,24.6,29.91,North,360,6.0,6.0,33,0.00,,,0.00,Wunderground v.1.15,2013-04-17 16:40:00,
2013-04-17 09:45:00,53.0,25.3,29.91,NE,34,7.0,8.0,34,0.00,,,0.00,Wunderground v.1.15,2013-04-17 16:45:00,
2013-04-17 09:55:00,53.6,25.2,29.91,NNW,342,6.0,8.0,33,0.00,,,0.00,Wunderground v.1.15,2013-04-17 16:55:00,
2013-04-17 10:00:00,53.9,24.7,29.91,North,10,7.0,10.0,32,0.00,,,0.00,Wunderground v.1.15,2013-04-17 17:00:00,
2013-04-17 10:10:00,54.0,23.2,29.92,NW,311,10.0,10.0,30,0.00,,,0.00,Wunderground v.1.15,2013-04-17 17:10:00,
2013-04-17 10:16:00,54.0,23.2,29.91,WNW,298,8.0,10.0,30,0.00,,,0.00,Wunderground v.1.15,2013-04-17 17:16:00,
2013-04-17 10:25:00,55.3,23.5,29.91,NNW,329,6.0,7.0,29,0.00,,,0.00,Wunderground v.1.15,2013-04-17 17:25:00,
2013-04-17 10:30:00,55.9,23.2,29.92,NW,322,8.0,10.0,28,0.00,,,0.00,Wunderground v.1.15,2013-04-17 17:30:00,
2013-04-17 10:40:00,56.0,22.4,29.92,NNW,344,8.0,8.0,27,0.00,,,0.00,Wunderground v.1.15,2013-04-17 17:40:00,
2013-04-17 10:45:00,56.2,20.8,29.91,NNW,344,9.0,9.0,25,0.00,,,0.00,Wunderground v.1.15,2013-04-17 17:45:00,
2013-04-17 10:55:00,56.6,22.1,29.92,NW,304,10.0,11.0,26,0.00,,,0.00,Wunderground v.1.15,2013-04-17 17:55:00,
2013-04-17 11:00:00,56.2,22.6,29.92,NW,311,8.0,9.0,27,0.00,,,0.00,Wunderground v.1.15,2013-04-17 18:00:00,
2013-04-17 11:10:00,54.4,21.1,29.92,North,352,9.0,14.0,27,0.00,,,0.00,Wunderground v.1.15,2013-04-17 18:10:00,
2013-04-17 11:15:00,53.9,21.5,29.92,WNW,295,11.0,14.0,28,0.00,,,0.00,Wunderground v.1.15,2013-04-17 18:15:00,
2013-04-17 11:25:00,53.9,18.8,29.92,NW,326,10.0,10.0,25,0.00,,,0.00,Wunderground v.1.15,2013-04-17 18:25:00,
2013-04-17 11:31:00,53.6,18.6,29.92,North,353,9.0,9.0,25,0.00,,,0.00,Wunderground v.1.15,2013-04-17 18:31:00,
2013-04-17 11:40:00,54.3,21.0,29.92,WNW,302,6.0,8.0,27,0.00,,,0.00,Wunderground v.1.15,2013-04-17 18:40:00,
2013-04-17 11:45:00,54.3,21.0,29.93,NW,310,8.0,8.0,27,0.00,,,0.00,Wunderground v.1.15,2013-04-17 18:45:00,
2013-04-17 11:55:00,56.2,17.8,29.92,NW,323,9.0,10.0,22,0.00,,,0.00,Wunderground v.1.15,2013-04-17 18:55:00,
2013-04-17 12:00:00,55.9,18.6,29.93,West,276,10.0,14.0,23,0.00,,,0.00,Wunderground v.1.15,2013-04-17 19:00:00,
2013-04-17 12:10:00,53.4,21.1,29.93,North,355,10.0,10.0,28,0.00,,,0.00,Wunderground v.1.15,2013-04-17 19:10:00,
2013-04-17 12:15:00,54.7,16.5,29.93,NNW,344,8.0,10.0,22,0.00,,,0.00,Wunderground v.1.15,2013-04-17 19:15:00,
2013-04-17 12:25:00,56.9,18.4,29.92,WNW,299,8.0,9.0,22,0.00,,,0.00,Wunderground v.1.15,2013-04-17 19:25:00,
2013-04-17 12:31:00,57.0,19.5,29.92,NNE,26,8.0,10.0,23,0.00,,,0.00,Wunderground v.1.15,2013-04-17 19:31:00,
2013-04-17 12:40:00,56.9,21.4,29.92,NNE,27,9.0,9.0,25,0.00,,,0.00,Wunderground v.1.15,2013-04-17 19:40:00,
2013-04-17 12:45:00,57.6,22.0,29.92,North,349,11.0,13.0,25,0.00,,,0.00,Wunderground v.1.15,2013-04-17 19:45:00,
2013-04-17 12:55:00,56.6,20.2,29.93,NNW,339,13.0,13.0,24,0.00,,,0.00,Wunderground v.1.15,2013-04-17 19:55:00,
2013-04-17 13:00:00,55.3,20.0,29.93,North,1,12.0,12.0,25,0.00,,,0.00,Wunderground v.1.15,2013-04-17 20:00:00,
2013-04-17 13:10:00,55.9,19.6,29.93,NNE,21,7.0,7.0,24,0.00,,,0.00,Wunderground v.1.15,2013-04-17 20:10:00,
2013-04-17 13:15:00,57.6,20.0,29.93,NNE,30,6.0,7.0,23,0.00,,,0.00,Wunderground v.1.15,2013-04-17 20:15:00,
2013-04-17 13:25:00,58.0,17.1,29.92,North,9,9.0,9.0,20,0.00,,,0.00,Wunderground v.1.15,2013-04-17 20:25:00,
2013-04-17 13:30:00,57.1,18.6,29.93,North,355,9.0,11.0,22,0.00,,,0.00,Wunderground v.1.15,2013-04-17 20:30:00,
2013-04-17 13:40:00,56.3,17.9,29.93,NE,39,10.0,10.0,22,0.00,,,0.00,Wunderground v.1.15,2013-04-17 20:40:00,
2013-04-17 13:46:00,56.3,17.9,29.93,NNW,347,7.0,10.0,22,0.00,,,0.00,Wunderground v.1.15,2013-04-17 20:46:00,
2013-04-17 13:55:00,58.5,16.3,29.93,NNW,345,7.0,8.0,19,0.00,,,0.00,Wunderground v.1.15,2013-04-17 20:55:00,
2013-04-17 14:00:00,58.7,16.5,29.93,NNW,330,7.0,8.0,19,0.00,,,0.00,Wunderground v.1.15,2013-04-17 21:00:00,
2013-04-17 14:10:00,59.0,15.5,29.93,NW,321,11.0,13.0,18,0.00,,,0.00,Wunderground v.1.15,2013-04-17 21:10:00,
2013-04-17 14:15:00,57.3,15.3,29.93,NW,326,13.0,13.0,19,0.00,,,0.00,Wunderground v.1.15,2013-04-17 21:15:00,
2013-04-17 14:25:00,58.1,14.8,29.93,North,11,13.0,15.0,18,0.00,,,0.00,Wunderground v.1.15,2013-04-17 21:25:00,
2013-04-17 14:31:00,58.0,13.4,29.93,North,352,14.0,14.0,17,0.00,,,0.00,Wunderground v.1.15,2013-04-17 21:31:00,
2013-04-17 14:40:00,58.4,13.7,29.92,NW,324,11.0,11.0,17,0.00,,,0.00,Wunderground v.1.15,2013-04-17 21:40:00,
2013-04-17 14:45:00,58.5,12.4,29.92,NNW,338,12.0,14.0,16,0.00,,,0.00,Wunderground v.1.15,2013-04-17 21:45:00,
2013-04-17 14:55:00,58.2,14.8,29.93,North,356,11.0,12.0,18,0.00,,,0.00,Wunderground v.1.15,2013-04-17 21:55:00,
2013-04-17 15:00:00,58.6,12.5,29.93,NNW,336,11.0,11.0,16,0.00,,,0.00,Wunderground v.1.15,2013-04-17 22:00:00,
2013-04-17 15:10:00,59.0,12.8,29.93,NW,319,11.0,17.0,16,0.00,,,0.00,Wunderground v.1.15,2013-04-17 22:10:00,
2013-04-17 15:16:00,58.8,14.0,29.93,NNE,23,12.0,17.0,17,0.00,,,0.00,Wunderground v.1.15,2013-04-17 22:16:00,
2013-04-17 15:25:00,59.5,14.6,29.93,NNW,345,9.0,12.0,17,0.00,,,0.00,Wunderground v.1.15,2013-04-17 22:25:00,
2013-04-17 15:30:00,59.3,15.7,29.93,NW,314,9.0,14.0,18,0.00,,,0.00,Wunderground v.1.15,2013-04-17 22:30:00,
2013-04-17 15:40:00,57.8,14.5,29.94,WNW,283,11.0,11.0,18,0.00,,,0.00,Wunderground v.1.15,2013-04-17 22:40:00,
2013-04-17 15:45:00,57.9,14.6,29.94,NW,326,9.0,11.0,18,0.00,,,0.00,Wunderground v.1.15,2013-04-17 22:45:00,
2013-04-17 15:55:00,57.7,13.1,29.94,NW,321,9.0,10.0,17,0.00,,,0.00,Wunderground v.1.15,2013-04-17 22:55:00,
2013-04-17 16:00:00,58.3,12.2,29.94,NW,321,10.0,10.0,16,0.00,,,0.00,Wunderground v.1.15,2013-04-17 23:00:00,
2013-04-17 16:10:00,59.0,12.8,29.94,WNW,296,8.0,8.0,16,0.00,,,0.00,Wunderground v.1.15,2013-04-17 23:10:00,
2013-04-17 16:16:00,59.7,11.9,29.94,West,281,6.0,8.0,15,0.00,,,0.00,Wunderground v.1.15,2013-04-17 23:16:00,
2013-04-17 16:25:00,56.8,11.0,29.95,WNW,303,8.0,10.0,16,0.00,,,0.00,Wunderground v.1.15,2013-04-17 23:25:00,
2013-04-17 16:30:00,56.1,10.4,29.95,NNW,333,9.0,9.0,16,0.00,,,0.00,Wunderground v.1.15,2013-04-17 23:30:00,
2013-04-17 16:40:00,57.7,10.3,29.95,NW,307,8.0,13.0,15,0.00,,,0.00,Wunderground v.1.15,2013-04-17 23:40:00,
2013-04-17 16:45:00,58.8,11.2,29.95,WNW,299,8.0,13.0,15,0.00,,,0.00,Wunderground v.1.15,2013-04-17 23:45:00,
2013-04-17 16:55:00,58.6,11.0,29.95,NW,318,11.0,11.0,15,0.00,,,0.00,Wunderground v.1.15,2013-04-17 23:55:00,
2013-04-17 17:01:00,58.3,10.8,29.95,NW,313,10.0,10.0,15,0.00,,,0.00,Wunderground v.1.15,2013-04-18 00:01:00,
2013-04-17 17:10:00,57.2,11.3,29.96,WNW,302,8.0,9.0,16,0.00,,,0.00,Wunderground v.1.15,2013-04-18 00:10:00,
2013-04-17 17:15:00,57.4,11.5,29.96,NW,318,8.0,9.0,16,0.00,,,0.00,Wunderground v.1.15,2013-04-18 00:15:00,
2013-04-17 17:25:00,57.6,11.7,29.96,NNW,333,9.0,10.0,16,0.00,,,0.00,Wunderground v.1.15,2013-04-18 00:25:00,
2013-04-17 17:30:00,57.6,11.7,29.96,NW,321,10.0,10.0,16,0.00,,,0.00,Wunderground v.1.15,2013-04-18 00:30:00,
2013-04-17 17:40:00,56.5,10.8,29.97,NW,319,9.0,9.0,16,0.00,,,0.00,Wunderground v.1.15,2013-04-18 00:40:00,
2013-04-17 17:45:00,55.7,11.5,29.97,North,359,10.0,10.0,17,0.00,,,0.00,Wunderground v.1.15,2013-04-18 00:45:00,
2013-04-17 17:55:00,56.5,12.1,29.97,WNW,302,8.0,10.0,17,0.00,,,0.00,Wunderground v.1.15,2013-04-18 00:55:00,
2013-04-17 18:00:00,56.6,12.2,29.97,NW,314,7.0,7.0,17,0.00,,,0.00,Wunderground v.1.15,2013-04-18 01:00:00,
2013-04-17 18:10:00,55.0,12.2,29.97,WNW,299,8.0,12.0,18,0.00,,,0.00,Wunderground v.1.15,2013-04-18 01:10:00,
2013-04-17 18:16:00,54.3,11.6,29.98,NW,314,8.0,12.0,18,0.00,,,0.00,Wunderground v.1.15,2013-04-18 01:16:00,
2013-04-17 18:25:00,53.5,12.2,29.98,NNW,336,8.0,9.0,19,0.00,,,0.00,Wunderground v.1.15,2013-04-18 01:25:00,
2013-04-17 18:30:00,53.3,12.0,29.98,WNW,291,8.0,8.0,19,0.00,,,0.00,Wunderground v.1.15,2013-04-18 01:30:00,
2013-04-17 18:40:00,53.0,11.8,29.99,NW,309,7.0,10.0,19,0.00,,,0.00,Wunderground v.1.15,2013-04-18 01:40:00,
2013-04-17 18:45:00,52.8,11.6,29.99,NW,326,7.0,10.0,19,0.00,,,0.00,Wunderground v.1.15,2013-04-18 01:45:00,
2013-04-17 18:55:00,52.5,12.5,29.99,NW,311,8.0,8.0,20,0.00,,,0.00,Wunderground v.1.15,2013-04-18 01:55:00,
2013-04-17 19:00:00,52.1,12.2,30.00,North,350,7.0,11.0,20,0.00,,,0.00,Wunderground v.1.15,2013-04-18 02:00:00,
2013-04-17 19:10:00,52.1,12.2,30.00,NW,309,8.0,8.0,20,0.00,,,0.00,Wunderground v.1.15,2013-04-18 02:10:00,
2013-04-17 19:16:00,51.6,11.8,30.00,NW,311,6.0,8.0,20,0.00,,,0.00,Wunderground v.1.15,2013-04-18 02:16:00,
2013-04-17 19:25:00,51.1,11.4,30.01,NNW,332,5.0,7.0,20,0.00,,,0.00,Wunderground v.1.15,2013-04-18 02:25:00,
2013-04-17 19:31:00,50.6,10.9,30.01,WNW,300,5.0,5.0,20,0.00,,,0.00,Wunderground v.1.15,2013-04-18 02:31:00,
2013-04-17 19:40:00,50.5,10.9,30.02,WNW,302,5.0,5.0,20,0.00,,,0.00,Wunderground v.1.15,2013-04-18 02:40:00,
2013-04-17 19:45:00,50.6,10.9,30.02,WNW,299,6.0,6.0,20,0.00,,,0.00,Wunderground v.1.15,2013-04-18 02:45:00,
2013-04-17 19:55:00,50.5,9.7,30.03,NW,319,5.0,7.0,19,0.00,,,0.00,Wunderground v.1.15,2013-04-18 02:55:00,
2013-04-17 20:00:00,50.1,9.4,30.03,NW,315,5.0,5.0,19,0.00,,,0.00,Wunderground v.1.15,2013-04-18 03:00:00,
2013-04-17 20:10:00,50.0,9.3,30.05,NW,314,6.0,6.0,19,0.00,,,0.00,Wunderground v.1.15,2013-04-18 03:10:00,
2013-04-17 20:16:00,49.7,10.2,30.05,NW,310,6.0,8.0,20,0.00,,,0.00,Wunderground v.1.15,2013-04-18 03:16:00,
2013-04-17 20:25:00,49.5,10.0,30.06,NW,315,6.0,6.0,20,0.00,,,0.00,Wunderground v.1.15,2013-04-18 03:25:00,
2013-04-17 20:31:00,49.5,8.9,30.06,North,354,6.0,6.0,19,0.00,,,0.00,Wunderground v.1.15,2013-04-18 03:31:00,
2013-04-17 20:40:00,49.3,8.7,30.07,NNW,328,6.0,6.0,19,0.00,,,0.00,Wunderground v.1.15,2013-04-18 03:40:00,
2013-04-17 20:45:00,49.3,8.7,30.07,NNW,342,7.0,12.0,19,0.00,,,0.00,Wunderground v.1.15,2013-04-18 03:45:00,
2013-04-17 20:55:00,49.0,8.5,30.08,NNW,329,7.0,7.0,19,0.00,,,0.00,Wunderground v.1.15,2013-04-18 03:55:00,
2013-04-17 21:00:00,48.5,9.2,30.08,NW,315,6.0,7.0,20,0.00,,,0.00,Wunderground v.1.15,2013-04-18 04:00:00,
2013-04-17 21:05:00,48.5,9.2,30.08,NW,319,6.0,9.0,20,0.00,,,0.00,Wunderground v.1.15,2013-04-18 04:05:00,
2013-04-17 21:10:00,48.2,8.9,30.09,NW,321,6.0,6.0,20,0.00,,,0.00,Wunderground v.1.15,2013-04-18 04:10:00,
2013-04-17 21:16:00,47.7,8.5,30.09,NW,309,5.0,6.0,20,0.00,,,0.00,Wunderground v.1.15,2013-04-18 04:16:00,
2013-04-17 21:25:00,47.5,8.3,30.09,NW,320,5.0,6.0,20,0.00,,,0.00,Wunderground v.1.15,2013-04-18 04:25:00,